Time;durP1;ratioP1;P1;durP2;ratioP2;P2;SDS_P1;SDS_P2;PMS_P1;PMS_P2;Temp;Humidity;BMP_temperature;BMP_pressure;BME280_temperature;BME280_humidity;BME280_pressure;Samples;Min_cycle;Max_cycle;Signal;HPM_P1;HPM_P2
2022/04/19 00:01:54;;;;;;;16.17;8.55;;;;;;;12.78;51.74;101501.91;5059398;28;20507;-46
2022/04/19 00:04:19;;;;;;;16.27;9.43;;;;;;;12.76;51.99;101501.88;5063093;28;20053;-45
2022/04/19 00:06:45;;;;;;;16.88;9.18;;;;;;;12.78;52.04;101501.91;5069603;28;20071;-46
2022/04/19 00:09:11;;;;;;;15.68;8.73;;;;;;;12.73;52.14;101498.31;5062049;28;20385;-47
2022/04/19 00:11:36;;;;;;;15.70;8.70;;;;;;;12.66;52.28;101505.00;5063441;28;20055;-45
2022/04/19 00:14:02;;;;;;;14.25;8.80;;;;;;;12.64;51.68;101493.78;5061372;28;20040;-48
2022/04/19 00:16:27;;;;;;;12.63;8.38;;;;;;;12.62;52.30;101500.63;5064787;28;20503;-46
2022/04/19 00:18:53;;;;;;;13.32;8.68;;;;;;;12.57;52.26;101491.84;5065285;28;20039;-46
2022/04/19 00:21:19;;;;;;;16.77;9.65;;;;;;;12.51;52.70;101496.84;5063915;28;20040;-46
2022/04/19 00:23:46;;;;;;;15.00;9.05;;;;;;;12.45;52.61;101502.69;5064557;28;20043;-45
2022/04/19 00:26:12;;;;;;;14.15;9.02;;;;;;;12.45;52.23;101502.69;5059449;28;20131;-47
2022/04/19 00:28:37;;;;;;;13.50;9.48;;;;;;;12.33;52.32;101498.00;5067759;28;20550;-45
2022/04/19 00:31:04;;;;;;;12.68;8.90;;;;;;;12.31;52.04;101491.91;5062658;28;20142;-45
2022/04/19 00:33:30;;;;;;;13.65;9.60;;;;;;;12.34;52.74;101499.75;5060366;28;20063;-45
2022/04/19 00:35:56;;;;;;;13.15;9.05;;;;;;;12.23;52.89;101493.38;5062968;28;20110;-46
2022/04/19 00:38:22;;;;;;;11.95;9.25;;;;;;;12.19;52.99;101494.09;5064533;28;20032;-48
2022/04/19 00:40:48;;;;;;;13.27;9.68;;;;;;;12.18;53.14;101487.22;5060877;28;20127;-47
2022/04/19 00:43:16;;;;;;;12.80;9.23;;;;;;;12.21;53.05;101494.19;5065414;28;20123;-48
2022/04/19 00:45:41;;;;;;;13.45;9.30;;;;;;;12.15;53.22;101494.88;5063094;28;20029;-45
2022/04/19 00:48:07;;;;;;;11.35;8.77;;;;;;;12.03;53.26;101491.91;5059773;28;20074;-49
2022/04/19 00:50:33;;;;;;;11.48;9.23;;;;;;;12.05;53.32;101495.38;5065345;28;20036;-47
2022/04/19 00:52:58;;;;;;;13.15;9.18;;;;;;;12.05;53.35;101492.81;5064205;28;20067;-46
2022/04/19 00:55:24;;;;;;;13.45;8.90;;;;;;;11.99;53.78;101490.03;5063453;28;20041;-45
2022/04/19 00:57:51;;;;;;;11.90;9.02;;;;;;;11.97;53.78;101494.28;5059309;28;20040;-45
2022/04/19 01:00:17;;;;;;;12.88;9.70;;;;;;;11.90;53.75;101495.78;5061607;28;20080;-46
2022/04/19 01:02:43;;;;;;;13.43;10.68;;;;;;;11.91;53.33;101484.63;5062644;28;20024;-46
2022/04/19 01:05:09;;;;;;;16.85;10.60;;;;;;;11.85;53.38;101493.88;5062743;28;20028;-44
2022/04/19 01:07:36;;;;;;;13.30;10.77;;;;;;;11.82;52.96;101492.06;5066695;28;20033;-46
2022/04/19 01:10:03;;;;;;;17.80;10.73;;;;;;;11.82;53.15;101492.06;5060706;28;20031;-46
2022/04/19 01:15:14;;;;;;;13.10;10.68;;;;;;;11.75;53.12;101493.53;5061831;28;20875;-48
2022/04/19 01:17:40;;;;;;;15.45;11.00;;;;;;;11.68;53.29;101491.56;5064516;28;20041;-46
2022/04/19 01:20:09;;;;;;;12.77;10.27;;;;;;;11.67;53.32;101488.97;5061035;28;20033;-44
2022/04/19 01:22:47;;;;;;;14.00;10.65;;;;;;;11.58;54.14;101481.78;5066579;28;20040;-48
2022/04/19 01:25:13;;;;;;;13.18;11.07;;;;;;;11.47;54.57;101478.00;5062249;28;20051;-46
2022/04/19 01:27:39;;;;;;;12.43;10.18;;;;;;;11.48;54.77;101472.00;5063640;28;20064;-44
2022/04/19 01:30:08;;;;;;;15.13;11.38;;;;;;;11.39;54.33;101475.13;5062468;28;20044;-48
2022/04/19 01:32:34;;;;;;;13.43;10.63;;;;;;;11.44;54.34;101472.72;5065077;28;20056;-48
2022/04/19 01:35:05;;;;;;;13.43;10.98;;;;;;;11.37;54.22;101475.91;5065213;28;20060;-49
2022/04/19 01:37:34;;;;;;;14.23;11.20;;;;;;;11.20;55.47;101476.19;5061723;28;20028;-45
2022/04/19 01:40:18;;;;;;;14.82;10.75;;;;;;;11.19;55.55;101476.16;5064335;28;20047;-47
2022/04/19 01:42:47;;;;;;;17.10;10.68;;;;;;;11.15;55.27;101470.00;5066871;28;20036;-45
2022/04/19 01:45:13;;;;;;;;;;;;;;;11.48;53.29;101475.44;5066751;28;20529;-44
2022/04/19 01:47:42;;;;;;;15.02;10.65;;;;;;;11.19;54.50;101471.00;5067749;28;20407;-44
2022/04/19 01:50:10;;;;;;;12.55;10.38;;;;;;;11.21;54.56;101469.34;5066815;28;20037;-45
2022/04/19 01:52:40;;;;;;;13.68;10.10;;;;;;;11.22;54.48;101466.84;5067169;28;20427;-45
2022/04/19 01:55:08;;;;;;;13.45;10.32;;;;;;;11.23;54.59;101468.59;5066555;28;20078;-46
2022/04/19 01:57:33;;;;;;;13.38;10.82;;;;;;;11.18;54.17;101470.13;5064479;28;20473;-46
2022/04/19 01:59:59;;;;;;;14.02;10.52;;;;;;;11.12;54.59;101469.91;5067330;28;20032;-45
2022/04/19 02:02:25;;;;;;;12.63;10.50;;;;;;;11.17;54.38;101470.06;5067211;28;20040;-45
2022/04/19 02:04:50;;;;;;;14.27;10.30;;;;;;;11.08;54.94;101478.31;5065230;28;20527;-47
2022/04/19 02:07:16;;;;;;;12.77;10.07;;;;;;;11.10;54.64;101470.66;5066825;28;20040;-45
2022/04/19 02:09:42;;;;;;;16.90;10.43;;;;;;;11.01;54.78;101472.09;5064159;28;20060;-47
2022/04/19 02:12:08;;;;;;;12.80;10.52;;;;;;;11.07;54.54;101480.84;5066875;28;20055;-45
2022/04/19 02:14:34;;;;;;;14.32;11.25;;;;;;;11.01;55.12;101471.22;5065540;28;20045;-48
2022/04/19 02:17:00;;;;;;;13.57;10.15;;;;;;;10.99;55.38;101471.16;5064434;28;20412;-47
2022/04/19 02:19:25;;;;;;;13.50;10.57;;;;;;;11.04;55.13;101473.00;5063911;28;20066;-45
2022/04/19 02:21:50;;;;;;;14.48;10.18;;;;;;;11.07;55.11;101471.44;5063325;28;20032;-44
2022/04/19 02:24:16;;;;;;;15.00;10.73;;;;;;;10.99;55.36;101471.16;5066738;28;20028;-44
2022/04/19 02:26:41;;;;;;;14.73;10.98;;;;;;;10.97;55.79;101467.63;5067191;28;20463;-46
2022/04/19 02:29:06;;;;;;;17.33;10.95;;;;;;;10.98;55.50;101461.69;5067013;28;20560;-44
2022/04/19 02:31:32;;;;;;;14.50;10.35;;;;;;;10.92;55.84;101458.91;5066504;28;20059;-48
2022/04/19 02:33:58;;;;;;;15.32;10.80;;;;;;;10.95;55.89;101460.69;5063457;28;20051;-47
2022/04/19 02:36:25;;;;;;;13.05;10.50;;;;;;;10.91;55.81;101458.81;5064466;28;20790;-47
2022/04/19 02:38:50;;;;;;;13.73;10.63;;;;;;;10.81;55.96;101459.34;5066250;28;20060;-44
2022/04/19 02:41:16;;;;;;;16.45;11.23;;;;;;;10.81;55.51;101457.63;5065289;28;20079;-46
2022/04/19 02:43:41;;;;;;;12.50;10.10;;;;;;;10.77;55.42;101452.31;5064132;28;20036;-45
2022/04/19 02:46:06;;;;;;;16.20;10.45;;;;;;;10.78;55.06;101454.06;5064339;28;20450;-47
2022/04/19 02:48:32;;;;;;;13.85;11.18;;;;;;;10.76;54.70;101453.16;5062730;28;20033;-46
2022/04/19 02:50:57;;;;;;;12.30;10.45;;;;;;;10.77;55.03;101454.88;5067197;28;20499;-45
2022/04/19 02:53:22;;;;;;;12.77;10.07;;;;;;;10.76;55.03;101456.59;5067874;28;20486;-48
2022/04/19 02:55:48;;;;;;;13.93;9.80;;;;;;;10.76;55.00;101450.56;5064222;28;20045;-46
2022/04/19 02:58:13;;;;;;;14.70;9.57;;;;;;;10.78;54.57;101454.06;5063928;28;20033;-48
2022/04/19 03:00:39;;;;;;;13.00;9.55;;;;;;;10.72;54.73;101453.00;5067474;28;20129;-46
2022/04/19 03:03:05;;;;;;;13.80;9.88;;;;;;;10.70;54.67;101446.06;5066614;28;20404;-45
2022/04/19 03:05:33;;;;;;;12.57;9.82;;;;;;;10.65;54.70;101445.91;5063249;28;20027;-49
2022/04/19 03:07:59;;;;;;;14.07;10.60;;;;;;;10.65;54.56;101450.16;5066038;28;20081;-44
2022/04/19 03:10:24;;;;;;;14.63;10.40;;;;;;;10.60;55.41;101444.84;5059055;28;20032;-45
2022/04/19 03:12:52;;;;;;;12.80;10.48;;;;;;;10.56;55.45;101445.56;5065222;28;20024;-47
2022/04/19 03:15:18;;;;;;;15.43;10.70;;;;;;;10.47;55.88;101450.34;5063573;28;21405;-47
2022/04/19 03:17:43;;;;;;;15.57;11.10;;;;;;;10.50;56.04;101445.34;5067376;28;20020;-45
2022/04/19 03:20:11;;;;;;;14.70;10.10;;;;;;;10.46;55.95;101444.34;5063776;28;20032;-45
2022/04/19 03:28:17;;;;;;;17.10;10.38;;;;;;;10.42;54.76;101447.59;5067462;28;20044;-45
2022/04/19 03:30:43;;;;;;;13.30;9.88;;;;;;;10.37;55.06;101440.53;5063617;28;20204;-44
2022/04/19 03:33:08;;;;;;;16.88;10.57;;;;;;;10.37;55.12;101446.53;5066437;28;20044;-46
2022/04/19 03:35:36;;;;;;;14.57;10.43;;;;;;;10.35;55.15;101450.75;5063110;28;20048;-48
2022/04/19 03:38:03;;;;;;;15.50;10.90;;;;;;;10.31;54.99;101443.75;5064956;28;20028;-45
2022/04/19 03:40:29;;;;;;;13.45;10.10;;;;;;;10.35;55.10;101444.75;5064435;28;20789;-45
2022/04/19 03:42:54;;;;;;;16.23;10.65;;;;;;;10.30;54.91;101441.13;5067104;28;20032;-44
2022/04/19 03:45:19;;;;;;;14.32;9.85;;;;;;;10.34;55.08;101443.88;5065400;28;20515;-47
2022/04/19 03:47:45;;;;;;;17.13;10.52;;;;;;;10.29;55.41;101441.94;5066255;28;20396;-49
2022/04/19 03:50:10;;;;;;;15.25;10.52;;;;;;;10.28;55.55;101442.78;5065376;28;20024;-46
2022/04/19 03:52:36;;;;;;;14.70;10.52;;;;;;;10.20;55.34;101443.31;5063505;28;20453;-44
2022/04/19 03:55:02;;;;;;;13.27;10.30;;;;;;;10.22;56.14;101440.81;5063882;28;20068;-46
2022/04/19 03:57:27;;;;;;;16.95;10.25;;;;;;;10.18;55.81;101452.66;5063234;28;20024;-44
2022/04/19 03:59:53;;;;;;;12.82;10.15;;;;;;;10.17;56.21;101440.63;5063514;28;20488;-45
2022/04/19 04:02:18;;;;;;;14.15;10.50;;;;;;;10.10;56.25;101442.91;5060986;28;20045;-45
2022/04/19 04:04:44;;;;;;;15.10;10.38;;;;;;;10.08;56.21;101444.53;5068145;28;20035;-45
2022/04/19 04:07:09;;;;;;;15.07;10.82;;;;;;;10.06;55.94;101443.59;5064583;28;20024;-43
2022/04/19 04:09:37;;;;;;;16.88;10.93;;;;;;;10.05;56.35;101450.41;5064503;28;20054;-48
2022/04/19 04:12:05;;;;;;;14.57;10.88;;;;;;;10.02;55.99;101449.44;5062981;28;20056;-46
2022/04/19 04:14:32;;;;;;;13.10;10.55;;;;;;;9.98;56.45;101458.69;5064141;28;20028;-44
2022/04/19 04:16:57;;;;;;;17.02;11.35;;;;;;;10.00;55.96;101445.91;5063506;28;20028;-43
2022/04/19 04:19:23;;;;;;;13.65;10.82;;;;;;;9.97;56.55;101443.25;5063422;28;20025;-44
2022/04/19 04:21:48;;;;;;;17.63;11.55;;;;;;;9.94;56.08;101449.97;5063281;28;20028;-45
2022/04/19 04:24:14;;;;;;;14.82;10.77;;;;;;;9.96;55.85;101450.06;5058127;28;20025;-43
2022/04/19 04:26:39;;;;;;;14.20;10.85;;;;;;;9.99;56.15;101446.72;5064667;28;20024;-45
2022/04/19 04:29:04;;;;;;;16.65;11.43;;;;;;;9.86;55.90;101453.94;5061076;28;20036;-46
2022/04/19 04:31:30;;;;;;;17.15;11.10;;;;;;;9.89;56.32;101456.66;5061952;28;20038;-46
2022/04/19 04:33:55;;;;;;;15.40;11.73;;;;;;;9.86;56.42;101461.66;5062645;28;20025;-46
2022/04/19 04:36:21;;;;;;;16.08;10.93;;;;;;;9.89;56.23;101455.78;5063213;28;20412;-43
2022/04/19 04:38:46;;;;;;;17.23;11.82;;;;;;;9.86;56.59;101459.09;5062381;28;20039;-47
2022/04/19 04:41:12;;;;;;;14.85;11.45;;;;;;;9.80;56.74;101463.09;5062032;28;20457;-45
2022/04/19 04:43:39;;;;;;;14.68;11.43;;;;;;;9.76;57.23;101456.06;5064066;28;20062;-44
2022/04/19 04:51:33;;;;;;;15.55;10.82;;;;;;;9.65;57.67;101461.69;5062060;28;20093;-47
2022/04/19 04:53:58;;;;;;;16.98;11.38;;;;;;;9.65;57.59;101461.69;5064818;28;20036;-45
2022/04/19 04:56:24;;;;;;;13.35;10.82;;;;;;;9.65;57.39;101463.38;5063360;28;20047;-47
2022/04/19 04:58:50;;;;;;;17.42;11.05;;;;;;;9.64;57.38;101464.16;5063442;28;20043;-43
2022/04/19 05:01:15;;;;;;;18.95;12.23;;;;;;;9.64;58.25;101462.47;5062340;28;20024;-45
2022/04/19 05:03:41;;;;;;;15.90;11.23;;;;;;;9.66;57.09;101465.13;5063483;28;20111;-45
2022/04/19 05:06:06;;;;;;;18.42;12.15;;;;;;;9.64;57.96;101465.03;5062207;28;20549;-46
2022/04/19 05:08:32;;;;;;;16.83;11.82;;;;;;;9.72;57.41;101473.06;5063300;28;20048;-43
2022/04/19 05:10:58;;;;;;;13.55;11.57;;;;;;;9.69;57.40;101465.22;5063518;28;20035;-47
2022/04/19 05:13:23;;;;;;;17.95;11.38;;;;;;;9.70;56.92;101463.53;5060862;28;20052;-45
2022/04/19 05:15:49;;;;;;;18.10;11.68;;;;;;;9.81;57.08;101472.56;5063111;28;20563;-44
2022/04/19 05:18:14;;;;;;;17.45;11.77;;;;;;;9.82;57.38;101469.16;5063568;28;20029;-44
2022/04/19 05:20:41;;;;;;;17.08;11.82;;;;;;;9.81;57.17;101473.44;5065589;28;20032;-45
2022/04/19 05:23:06;;;;;;;16.95;11.50;;;;;;;9.91;55.92;101472.13;5063736;28;20044;-44
2022/04/19 05:25:32;;;;;;;16.08;11.23;;;;;;;9.90;55.14;101473.81;5062811;28;20044;-46
2022/04/19 05:27:57;;;;;;;15.98;11.65;;;;;;;9.94;55.13;101477.38;5060772;28;20028;-45
2022/04/19 05:30:22;;;;;;;13.77;10.18;;;;;;;10.05;54.57;101473.53;5061420;28;20036;-44
2022/04/19 05:32:48;;;;;;;15.68;11.25;;;;;;;10.12;53.84;101474.66;5062022;28;20067;-45
2022/04/19 05:35:14;;;;;;;15.27;10.93;;;;;;;10.11;52.96;101466.06;5062562;28;20033;-46
2022/04/19 05:37:40;;;;;;;14.95;10.20;;;;;;;10.17;53.17;101468.88;5062497;28;20093;-43
2022/04/19 05:40:07;;;;;;;15.63;10.45;;;;;;;10.18;52.29;101473.19;5062201;28;20090;-48
2022/04/19 05:42:32;;;;;;;17.10;10.82;;;;;;;10.24;53.07;101472.59;5062145;28;20393;-43
2022/04/19 05:44:58;;;;;;;16.15;10.93;;;;;;;10.31;51.69;101476.28;5062969;28;20054;-43
2022/04/19 05:47:23;;;;;;;16.73;10.70;;;;;;;10.28;51.18;101476.19;5060410;28;20105;-45
2022/04/19 05:49:49;;;;;;;14.30;10.02;;;;;;;10.31;51.16;101472.03;5063739;28;20115;-45
2022/04/19 05:52:14;;;;;;;20.55;11.25;;;;;;;10.33;51.14;101469.53;5060831;28;20124;-45
2022/04/19 05:54:40;;;;;;;16.77;10.95;;;;;;;10.37;51.45;101468.81;5062654;28;20033;-45
2022/04/19 05:57:05;;;;;;;16.55;11.00;;;;;;;10.43;51.62;101471.63;5064157;28;20037;-44
2022/04/19 05:59:31;;;;;;;15.00;11.00;;;;;;;10.60;51.09;101462.84;5063669;28;20482;-45
2022/04/19 06:04:52;;;;;;;19.33;11.25;;;;;;;10.81;51.16;101472.19;5063886;28;20078;-44
2022/04/19 06:07:25;;;;;;;15.25;10.88;;;;;;;10.93;50.73;101478.66;5063066;28;20032;-46
2022/04/19 06:09:51;;;;;;;16.83;11.27;;;;;;;11.05;49.72;101478.25;5061018;28;20041;-45
2022/04/19 06:12:16;;;;;;;16.67;10.70;;;;;;;11.19;49.30;101478.72;5064579;28;20021;-43
2022/04/19 06:14:42;;;;;;;18.67;11.05;;;;;;;11.32;49.36;101487.75;5061379;28;20551;-50
2022/04/19 06:17:07;;;;;;;17.58;10.95;;;;;;;11.45;48.93;101485.63;5064034;28;20036;-47
2022/04/19 06:19:33;;;;;;;15.32;11.30;;;;;;;11.57;49.04;101484.31;5064173;28;20047;-43
2022/04/19 06:21:59;;;;;;;19.60;11.43;;;;;;;11.68;48.07;101490.69;5062142;28;20119;-44
2022/04/19 06:24:25;;;;;;;15.80;11.20;;;;;;;11.74;47.65;101488.31;5063662;28;20451;-45
2022/04/19 06:26:50;;;;;;;19.92;11.70;;;;;;;11.82;48.43;101492.94;5062090;28;20029;-44
2022/04/19 06:29:16;;;;;;;20.20;11.80;;;;;;;11.92;47.98;101488.09;5060401;28;20021;-45
2022/04/19 06:31:43;;;;;;;18.63;11.50;;;;;;;11.97;47.57;101495.16;5065273;28;20147;-46
2022/04/19 06:34:09;;;;;;;18.23;11.50;;;;;;;12.13;47.76;101499.06;5068796;28;20107;-44
2022/04/19 06:36:34;;;;;;;19.65;11.35;;;;;;;12.16;47.95;101491.44;5066247;28;20135;-44
2022/04/19 06:39:00;;;;;;;25.15;12.13;;;;;;;12.26;47.63;101500.38;5063812;28;20284;-47
2022/04/19 06:41:25;;;;;;;18.00;12.35;;;;;;;12.31;47.32;101485.88;5068526;28;20067;-44
2022/04/19 06:43:51;;;;;;;19.05;12.90;;;;;;;12.40;47.71;101491.34;5065979;28;20046;-46
2022/04/19 06:46:17;;;;;;;24.20;12.90;;;;;;;12.50;47.81;101495.09;5065267;28;20051;-47
2022/04/19 06:48:43;;;;;;;19.88;12.63;;;;;;;12.61;47.40;101491.09;5066021;28;20032;-46
2022/04/19 06:51:09;;;;;;;18.67;11.95;;;;;;;12.74;47.24;101498.41;5064382;28;20119;-45
2022/04/19 06:53:37;;;;;;;20.65;11.98;;;;;;;12.84;47.24;101490.06;5065302;28;20130;-44
2022/04/19 06:56:04;;;;;;;19.23;12.23;;;;;;;13.05;46.57;101494.09;5061832;28;20052;-48
2022/04/19 06:58:30;;;;;;;16.52;11.27;;;;;;;13.14;46.59;101494.34;5066756;28;20037;-46
2022/04/19 07:00:56;;;;;;;18.70;12.18;;;;;;;13.14;45.74;101492.63;5067663;28;20508;-46
2022/04/19 07:03:22;;;;;;;19.48;12.23;;;;;;;13.24;45.47;101495.53;5066741;28;20878;-49
2022/04/19 07:05:48;;;;;;;18.05;11.52;;;;;;;13.33;46.42;101498.34;5063203;28;20412;-47
2022/04/19 07:08:13;;;;;;;18.23;11.98;;;;;;;13.43;45.63;101496.88;5065763;28;20029;-44
2022/04/19 07:10:38;;;;;;;15.93;11.77;;;;;;;13.55;44.22;101494.63;5065603;28;20631;-47
2022/04/19 07:13:04;;;;;;;18.55;10.77;;;;;;;13.63;45.78;101503.44;5066938;28;20036;-44
2022/04/19 07:15:29;;;;;;;17.98;11.82;;;;;;;13.79;45.50;101502.13;5065597;28;20025;-45
2022/04/19 07:17:55;;;;;;;16.65;11.15;;;;;;;13.88;43.97;101495.44;5065163;28;20035;-46
2022/04/19 07:28:35;;;;;;;18.27;11.18;;;;;;;14.31;43.31;101495.59;5066977;28;20111;-44
2022/04/19 07:31:01;;;;;;;17.23;11.23;;;;;;;14.40;44.13;101506.16;5063952;28;20064;-46
2022/04/19 07:33:26;;;;;;;18.73;11.35;;;;;;;14.46;43.90;101504.63;5066098;28;20036;-47
2022/04/19 07:35:55;;;;;;;17.92;11.75;;;;;;;14.50;43.77;101508.16;5062479;28;20028;-44
2022/04/19 07:38:20;;;;;;;15.07;10.68;;;;;;;14.59;43.78;101513.53;5064835;28;20051;-47
2022/04/19 07:40:46;;;;;;;19.08;11.93;;;;;;;14.67;43.81;101509.38;5065123;28;20044;-44
2022/04/19 07:43:11;;;;;;;15.77;11.07;;;;;;;14.74;43.43;101511.28;5065895;28;20058;-46
2022/04/19 07:45:37;;;;;;;15.43;10.60;;;;;;;14.82;42.98;101511.44;5063085;28;20037;-45
2022/04/19 07:48:04;;;;;;;14.40;10.85;;;;;;;14.94;43.40;101508.22;5062667;28;20029;-44
2022/04/19 07:50:30;;;;;;;18.30;11.13;;;;;;;15.09;43.05;101510.25;5063246;28;20082;-44
2022/04/19 07:52:55;;;;;;;17.63;10.93;;;;;;;15.19;42.80;101512.19;5066479;28;20538;-47
2022/04/19 07:55:21;;;;;;;18.48;11.30;;;;;;;15.31;42.62;101508.97;5065327;28;20461;-44
2022/04/19 07:57:47;;;;;;;18.60;11.48;;;;;;;15.45;42.98;101505.75;5063620;28;20032;-44
2022/04/19 08:00:13;;;;;;;18.52;10.75;;;;;;;15.50;41.36;101508.44;5064677;28;20054;-46
2022/04/19 08:02:39;;;;;;;13.65;9.93;;;;;;;15.59;40.99;101505.13;5062005;28;20500;-45
2022/04/19 08:05:05;;;;;;;16.35;10.55;;;;;;;15.66;40.91;101509.63;5064959;28;20055;-45
2022/04/19 08:07:30;;;;;;;13.70;9.02;;;;;;;15.79;40.30;101511.59;5065119;28;20037;-46
2022/04/19 08:09:58;;;;;;;15.73;9.70;;;;;;;15.85;40.00;101511.69;5066880;28;20024;-45
2022/04/19 08:12:24;;;;;;;15.07;9.70;;;;;;;15.95;39.79;101508.38;5061505;28;20032;-45
2022/04/19 08:14:50;;;;;;;13.23;8.98;;;;;;;16.04;38.81;101518.91;5066841;28;20082;-46
2022/04/19 08:17:15;;;;;;;13.88;8.60;;;;;;;16.14;38.76;101514.75;5062913;28;20401;-44
2022/04/19 08:19:41;;;;;;;16.27;8.50;;;;;;;16.15;38.16;101515.63;5065279;28;20479;-46
2022/04/19 08:22:06;;;;;;;13.05;7.43;;;;;;;16.34;37.79;101510.75;5060317;28;20037;-46
2022/04/19 08:24:31;;;;;;;13.52;6.90;;;;;;;16.39;36.90;101505.63;5066134;28;20032;-47
2022/04/19 08:26:57;;;;;;;14.20;7.15;;;;;;;16.52;36.30;101496.28;5062629;28;20132;-48
2022/04/19 08:29:22;;;;;;;11.15;7.00;;;;;;;16.66;36.03;101496.47;5065130;28;20479;-48
2022/04/19 08:31:48;;;;;;;12.38;6.47;;;;;;;16.64;35.15;101501.63;5064760;28;20051;-45
2022/04/19 08:34:14;;;;;;;10.57;6.25;;;;;;;16.69;35.57;101484.41;5064578;28;20048;-47
2022/04/19 08:36:40;;;;;;;9.02;6.13;;;;;;;16.68;35.00;101490.41;5065976;28;20036;-47
2022/04/19 08:39:05;;;;;;;10.68;6.10;;;;;;;16.72;34.84;101497.44;5062598;28;20040;-47
2022/04/19 08:41:31;;;;;;;10.07;6.07;;;;;;;16.76;36.22;101490.56;5066142;28;20546;-44
2022/04/19 08:43:57;;;;;;;11.18;6.07;;;;;;;16.71;34.58;101495.69;5062060;28;20029;-48
2022/04/19 08:46:23;;;;;;;10.57;6.25;;;;;;;16.82;35.17;101499.31;5066423;28;20086;-46
2022/04/19 08:48:49;;;;;;;8.85;5.60;;;;;;;16.84;34.28;101500.19;5063677;28;20146;-45
2022/04/19 08:51:18;;;;;;;9.82;5.60;;;;;;;16.80;34.45;101503.59;5062281;28;20086;-51
2022/04/19 08:59:14;;;;;;;9.40;5.25;;;;;;;17.05;34.64;101488.34;5063440;28;20052;-45
2022/04/19 09:01:41;;;;;;;8.68;5.30;;;;;;;17.11;34.25;101489.28;5067034;28;20484;-47
2022/04/19 09:04:06;;;;;;;9.68;5.68;;;;;;;17.13;33.82;101491.88;5061439;28;20058;-47
2022/04/19 09:06:55;;;;;;;8.98;5.97;;;;;;;17.21;34.85;101494.56;5062885;28;20103;-48
2022/04/19 09:09:24;;;;;;;;;;;;;;;17.29;34.67;101490.28;5062520;28;20466;-47
2022/04/19 09:11:51;;;;;;;13.57;6.28;;;;;;;17.27;34.50;101494.63;5060919;28;20939;-46
2022/04/19 09:14:17;;;;;;;9.50;5.97;;;;;;;17.27;33.78;101492.88;5063976;28;20396;-44
2022/04/19 09:16:43;;;;;;;11.23;5.55;;;;;;;17.23;33.69;101488.53;5063316;28;20085;-46
2022/04/19 09:19:09;;;;;;;9.73;5.40;;;;;;;17.35;34.53;101491.25;5060617;28;20084;-46
2022/04/19 09:21:39;;;;;;;10.15;5.55;;;;;;;17.36;34.15;101482.59;5064896;28;20036;-46
2022/04/19 09:24:21;;;;;;;10.70;5.88;;;;;;;17.42;33.85;101485.25;5063492;28;20021;-45
2022/04/19 09:26:48;;;;;;;12.50;6.32;;;;;;;17.32;33.72;101479.94;5063530;28;20510;-45
2022/04/19 09:29:21;;;;;;;10.00;6.22;;;;;;;17.29;34.14;101480.81;5068347;28;20029;-44
2022/04/19 09:31:50;;;;;;;13.63;6.45;;;;;;;17.30;34.07;101473.88;5068774;28;20025;-47
2022/04/19 09:34:31;;;;;;;11.57;6.03;;;;;;;17.44;34.26;101472.28;5061603;28;20485;-45
2022/04/19 09:37:07;;;;;;;10.00;5.60;;;;;;;17.56;34.70;101480.19;5063838;28;20024;-45
2022/04/19 09:39:34;;;;;;;10.20;5.65;;;;;;;17.60;33.64;101479.38;5062573;28;20032;-44
2022/04/19 09:42:08;;;;;;;11.85;6.03;;;;;;;17.66;33.45;101475.94;5063702;28;20039;-47
2022/04/19 09:44:42;;;;;;;10.23;5.72;;;;;;;17.69;33.72;101470.75;5066410;28;20542;-47
2022/04/19 09:47:09;;;;;;;9.05;5.55;;;;;;;17.73;33.46;101464.78;5057868;28;20108;-46
2022/04/19 09:49:48;;;;;;;9.32;5.05;;;;;;;17.81;33.56;101462.22;5060076;28;20075;-45
2022/04/19 09:52:33;;;;;;;7.88;4.28;;;;;;;17.89;32.74;101463.13;5066207;28;20499;-46
2022/04/19 09:55:10;;;;;;;8.57;4.38;;;;;;;17.91;32.82;101464.03;5064245;28;20453;-49
2022/04/19 09:57:38;;;;;;;11.88;4.65;;;;;;;17.89;32.26;101468.34;5062030;28;20077;-45
2022/04/19 10:00:14;;;;;;;11.43;4.35;;;;;;;17.89;32.84;101464.00;5065860;28;20032;-46
2022/04/19 10:08:18;;;;;;;6.05;3.80;;;;;;;18.01;31.13;101460.63;5068510;28;20133;-45
2022/04/19 10:10:47;;;;;;;7.07;4.07;;;;;;;18.11;31.91;101457.22;5066224;28;20378;-46
2022/04/19 10:13:13;;;;;;;8.93;4.45;;;;;;;18.22;31.52;101465.13;5067414;28;20029;-48
2022/04/19 10:15:40;;;;;;;7.93;3.58;;;;;;;18.35;31.59;101464.31;5066552;28;20032;-46
2022/04/19 10:18:07;;;;;;;7.82;4.30;;;;;;;18.53;32.28;101460.09;5069030;28;20064;-48
2022/04/19 10:20:54;;;;;;;8.05;4.93;;;;;;;18.58;32.23;101454.03;5072152;28;20507;-50
2022/04/19 10:23:21;;;;;;;8.48;4.93;;;;;;;18.57;31.51;101451.44;5065965;28;20511;-45
2022/04/19 10:25:48;;;;;;;9.38;4.53;;;;;;;18.73;31.60;101448.03;5067055;28;20024;-46
2022/04/19 10:28:30;;;;;;;9.43;4.50;;;;;;;18.86;31.36;101461.97;5068429;28;20488;-46
2022/04/19 10:30:57;;;;;;;9.25;4.45;;;;;;;19.02;31.47;101453.34;5069138;28;20488;-45
2022/04/19 10:33:38;;;;;;;10.25;4.82;;;;;;;19.17;31.81;101450.78;5063214;28;20036;-47
2022/04/19 10:36:14;;;;;;;7.28;4.68;;;;;;;19.30;31.56;101459.50;5066926;28;20024;-45
2022/04/19 10:38:41;;;;;;;8.88;4.53;;;;;;;19.51;31.11;101461.25;5066742;28;20117;-46
2022/04/19 10:41:07;;;;;;;8.70;5.00;;;;;;;19.62;31.06;101464.78;5067608;28;20439;-50
2022/04/19 10:43:32;;;;;;;10.15;5.28;;;;;;;19.63;31.02;101460.44;5066593;28;20107;-47
2022/04/19 10:46:21;;;;;;;8.52;5.40;;;;;;;19.71;30.66;101449.09;5066070;28;20481;-47
2022/04/19 10:49:21;;;;;;;7.65;5.00;;;;;;;19.74;30.29;101454.34;5065207;28;20413;-48
2022/04/19 10:51:47;;;;;;;9.57;5.40;;;;;;;19.64;30.02;101444.75;5067090;28;21118;-47
2022/04/19 10:54:13;;;;;;;7.93;4.70;;;;;;;19.85;29.93;101443.03;5067151;28;20028;-48
2022/04/19 11:00:18;;;;;;;10.65;5.53;;;;;;;20.30;30.66;101424.66;5063094;28;20054;-47
2022/04/19 11:02:56;;;;;;;9.07;4.43;;;;;;;20.38;30.27;101436.81;5063006;28;20025;-45
2022/04/19 11:05:34;;;;;;;8.88;4.43;;;;;;;20.47;29.15;101437.69;5066570;28;20486;-45
2022/04/19 11:08:39;;;;;;;8.52;4.60;;;;;;;20.55;29.14;101421.97;5065152;28;20032;-52
2022/04/19 11:11:07;;;;;;;8.25;4.65;;;;;;;20.72;29.07;101425.41;5068223;28;20054;-48
2022/04/19 11:13:35;;;;;;;8.23;4.95;;;;;;;20.95;29.41;101429.66;5064105;28;20051;-47
2022/04/19 11:16:03;;;;;;;10.35;5.03;;;;;;;21.06;29.08;101426.09;5066022;28;20078;-48
2022/04/19 11:18:30;;;;;;;11.55;5.43;;;;;;;21.20;28.83;101426.00;5067005;28;20035;-46
2022/04/19 11:20:58;;;;;;;10.25;5.80;;;;;;;21.14;28.69;101421.66;5066019;28;20032;-47
2022/04/19 11:23:26;;;;;;;11.20;6.03;;;;;;;21.14;29.46;101416.44;5066649;28;20082;-45
2022/04/19 11:25:55;;;;;;;10.85;5.85;;;;;;;21.18;28.96;101406.84;5063801;28;20118;-50
2022/04/19 11:28:24;;;;;;;10.45;5.80;;;;;;;21.55;29.08;101407.44;5068007;28;20043;-45
2022/04/19 11:30:49;;;;;;;9.43;4.90;;;;;;;21.68;28.28;101405.59;5064392;28;20039;-44
2022/04/19 11:33:41;;;;;;;8.70;5.07;;;;;;;21.95;28.48;101402.69;5065817;28;20024;-47
2022/04/19 11:36:10;;;;;;;10.70;5.18;;;;;;;21.79;27.41;101405.50;5059849;28;20033;-45
2022/04/19 11:38:56;;;;;;;8.18;5.00;;;;;;;21.97;28.32;101399.22;5066204;28;20039;-45
2022/04/19 11:46:57;;;;;;;12.05;5.30;;;;;;;22.02;27.08;101397.38;5041081;28;20145;-45
2022/04/19 11:49:24;;;;;;;10.15;5.45;;;;;;;21.91;27.07;101401.00;5063132;28;20056;-46
2022/04/19 11:51:52;;;;;;;9.73;5.07;;;;;;;21.99;27.04;101403.53;5066853;28;20793;-46
2022/04/19 11:54:22;;;;;;;8.45;4.57;;;;;;;21.91;26.97;101406.22;5063352;28;20535;-48
2022/04/19 11:57:04;;;;;;;10.13;4.90;;;;;;;21.90;27.49;101395.75;5067721;28;20040;-51
2022/04/19 11:59:31;;;;;;;8.43;4.80;;;;;;;21.56;28.03;101410.94;5058306;28;20084;-48
2022/04/19 12:01:57;;;;;;;6.72;4.22;;;;;;;21.34;27.47;101405.84;5062318;28;20036;-47